Terminal Aerodrome Forecast
Issued by NWS Charleston, WV

Current Version | Previous Version | Graphics & Text | Print | Product List | Glossary On
Versions: 1 2 3 4 5 6 7 8 9 10 11 12 13 14 15 16 17 18 19 20 21 22 23 24 25 26 27 28 29 30
000
FTUS41 KRLX 130500
TAFCRW
TAF
KCRW 130540Z 1306/1406 02003KT P6SM VCSH SCT025 BKN050
     FM130800 00000KT P6SM BKN025
     FM131000 00000KT 5SM -SHRA BR OVC015
     FM131500 VRB03KT 6SM BR OVC025
     FM131600 33004KT P6SM OVC025
     FM131800 31005KT P6SM BKN020
     FM132200 33005KT P6SM BKN035=

USA.gov is the U.S. government's official web portal to all federal, state and local government web resources and services.